createdAt,value
2019-03-22T00:00:42.569Z,7.8
2019-03-22T00:01:43.963Z,7.8
2019-03-22T00:02:45.338Z,7.9
2019-03-22T00:03:46.904Z,7.9
2019-03-22T00:04:48.480Z,7.9
2019-03-22T00:05:50.057Z,7.9
2019-03-22T00:06:51.455Z,7.9
2019-03-22T00:07:53.136Z,7.9
2019-03-22T00:08:54.397Z,7.9
2019-03-22T00:09:55.960Z,7.9
2019-03-22T00:10:57.188Z,7.9
2019-03-22T00:11:58.734Z,7.9
2019-03-22T00:13:00.273Z,7.9
2019-03-22T00:14:01.844Z,7.9
2019-03-22T00:15:03.391Z,7.9
2019-03-22T00:16:04.950Z,7.9
2019-03-22T00:17:06.182Z,7.9
2019-03-22T00:18:07.553Z,7.8
2019-03-22T00:19:09.184Z,7.8
2019-03-22T00:20:10.640Z,7.8
2019-03-22T00:21:12.207Z,7.9
2019-03-22T00:22:13.617Z,7.9
2019-03-22T00:23:14.871Z,7.9
2019-03-22T00:24:16.417Z,7.9
2019-03-22T00:25:17.816Z,7.9
2019-03-22T00:26:19.353Z,7.9
2019-03-22T00:27:20.917Z,7.9
2019-03-22T00:28:22.337Z,7.9
2019-03-22T00:29:23.707Z,7.9
2019-03-22T00:30:25.298Z,7.9
2019-03-22T00:31:26.947Z,7.9
2019-03-22T00:32:28.334Z,7.9
2019-03-22T00:33:29.870Z,7.9
2019-03-22T00:34:31.246Z,7.9
2019-03-22T00:35:32.877Z,7.2
2019-03-22T00:36:34.296Z,7.3
2019-03-22T00:37:35.848Z,7.3
2019-03-22T00:38:37.384Z,7.4
2019-03-22T00:39:38.950Z,7.4
2019-03-22T00:41:49.909Z,7.5
2019-03-22T00:42:51.136Z,7.5
2019-03-22T00:43:52.367Z,7.5
2019-03-22T00:44:53.909Z,7.5
2019-03-22T00:45:55.458Z,7.5
2019-03-22T00:46:57.048Z,7.6
2019-03-22T00:47:58.603Z,7.6
2019-03-22T00:49:00.003Z,7.7
2019-03-22T00:50:01.580Z,7.7
2019-03-22T00:51:03.123Z,7.8
2019-03-22T00:52:04.338Z,7.8
2019-03-22T00:53:05.723Z,7.8
2019-03-22T00:54:07.109Z,7.8
2019-03-22T00:55:08.660Z,7.8
2019-03-22T00:56:10.205Z,7.8
2019-03-22T00:57:11.602Z,7.8
2019-03-22T00:58:13.145Z,7.8
2019-03-22T00:59:14.537Z,7.8
2019-03-22T01:00:15.929Z,7.2
2019-03-22T01:01:21.180Z,7.3
2019-03-22T01:02:22.707Z,7.3
2019-03-22T01:03:24.270Z,7.3
2019-03-22T01:04:25.704Z,7.4
2019-03-22T01:05:27.119Z,7.4
2019-03-22T01:06:28.674Z,7.4
2019-03-22T01:07:30.057Z,7.4
2019-03-22T01:08:31.616Z,7.4
2019-03-22T01:09:33.179Z,7.4
2019-03-22T01:10:34.727Z,7.5
2019-03-22T01:11:35.970Z,7.5
2019-03-22T01:12:37.341Z,7.6
2019-03-22T01:13:38.423Z,7.6
2019-03-22T01:14:39.957Z,7.6
2019-03-22T01:15:41.504Z,7.7
2019-03-22T01:16:42.908Z,7.7
2019-03-22T01:17:44.327Z,7.7
2019-03-22T01:18:45.880Z,7.7
2019-03-22T01:19:47.426Z,7.7
2019-03-22T01:20:48.809Z,7.7
2019-03-22T01:21:50.346Z,7.8
2019-03-22T01:22:51.800Z,7.7
2019-03-22T01:23:53.365Z,7.8
2019-03-22T01:24:54.907Z,7.8
2019-03-22T01:25:56.300Z,7.8
2019-03-22T01:26:57.702Z,7.8
2019-03-22T01:27:59.117Z,7.9
2019-03-22T01:29:00.670Z,7.9
2019-03-22T01:30:02.066Z,7.9
2019-03-22T01:31:03.598Z,7.9
2019-03-22T01:32:04.963Z,7.9
2019-03-22T01:33:06.502Z,7.9
2019-03-22T01:34:08.056Z,7.9
2019-03-22T01:35:09.581Z,7.9
2019-03-22T01:36:11.138Z,7.9
2019-03-22T01:37:12.748Z,7.9
2019-03-22T01:38:14.337Z,7.9
2019-03-22T01:39:15.708Z,7.9
2019-03-22T01:40:17.297Z,7.9
2019-03-22T01:41:18.834Z,7.9
2019-03-22T01:42:20.223Z,7.9
2019-03-22T01:43:21.761Z,7.8
2019-03-22T01:44:23.325Z,7.8
2019-03-22T01:45:24.697Z,7.9
2019-03-22T01:46:26.248Z,7.8
2019-03-22T01:47:27.801Z,7.8
2019-03-22T01:48:29.183Z,7.9
2019-03-22T01:49:30.573Z,7.8
2019-03-22T01:50:31.928Z,7.8
2019-03-22T01:51:33.471Z,7.8
2019-03-22T01:52:34.400Z,7.8
2019-03-22T01:53:36.008Z,7.8
2019-03-22T01:54:37.219Z,7.8
2019-03-22T01:55:38.776Z,7.8
2019-03-22T01:56:40.184Z,7.8
2019-03-22T01:57:55.236Z,7.8
2019-03-22T01:58:56.641Z,7.8
2019-03-22T01:59:58.238Z,7.8
2019-03-22T02:00:59.625Z,7.8
2019-03-22T02:02:01.015Z,7.8
2019-03-22T02:03:02.407Z,7.7
2019-03-22T02:04:03.813Z,7.6
2019-03-22T02:05:05.048Z,7.5
2019-03-22T02:06:06.428Z,7.4
2019-03-22T02:07:07.980Z,7.3
2019-03-22T02:08:09.200Z,7.1
2019-03-22T02:09:10.438Z,7.1
2019-03-22T02:10:12.013Z,7.1
2019-03-22T02:11:13.558Z,7.1
2019-03-22T02:12:14.790Z,7.1
2019-03-22T02:13:16.422Z,7.1
2019-03-22T02:14:17.970Z,7.1
2019-03-22T02:15:19.526Z,7.1
2019-03-22T02:16:20.582Z,7.1
2019-03-22T02:17:21.970Z,7.2
2019-03-22T02:18:23.354Z,7.1
2019-03-22T02:19:24.750Z,7.1
2019-03-22T02:20:25.950Z,7.1
2019-03-22T02:21:27.536Z,7.1
2019-03-22T02:22:28.760Z,7.1
2019-03-22T02:23:30.146Z,7.1
2019-03-22T02:24:31.697Z,7.1
2019-03-22T02:25:33.226Z,7.1
2019-03-22T02:26:34.312Z,7.2
2019-03-22T02:27:35.900Z,7.2
2019-03-22T02:28:37.461Z,7.2
2019-03-22T02:29:39.010Z,7.2
2019-03-22T02:30:40.427Z,7.2
2019-03-22T02:31:41.850Z,7.2
2019-03-22T02:32:43.422Z,7.2
2019-03-22T02:33:44.861Z,7.1
2019-03-22T02:34:46.408Z,7.1
2019-03-22T02:35:47.983Z,7.2
2019-03-22T02:36:49.545Z,7.2
2019-03-22T02:37:51.172Z,7.1
2019-03-22T02:38:52.603Z,7.2
2019-03-22T02:39:54.224Z,7.2
2019-03-22T02:40:55.836Z,7.2
2019-03-22T02:41:57.414Z,7.2
2019-03-22T02:42:58.711Z,7.2
2019-03-22T02:44:00.331Z,7.2
2019-03-22T02:45:02.024Z,7.2
2019-03-22T02:46:03.441Z,7.2
2019-03-22T02:47:04.998Z,7.2
2019-03-22T02:48:06.552Z,7.2
2019-03-22T02:49:07.967Z,7.2
2019-03-22T02:50:24.248Z,7.2
2019-03-22T02:51:25.830Z,7.2
2019-03-22T02:52:27.226Z,7.2
2019-03-22T02:53:28.478Z,7.1
2019-03-22T02:54:30.017Z,7.2
2019-03-22T02:55:31.565Z,7.2
2019-03-22T02:56:32.993Z,7.2
2019-03-22T02:57:34.418Z,7.2
2019-03-22T02:58:35.819Z,7.2
2019-03-22T02:59:37.229Z,7.1
2019-03-22T03:00:38.641Z,7.1
2019-03-22T03:01:40.189Z,7.1
2019-03-22T03:02:41.845Z,7.1
2019-03-22T03:03:43.232Z,7.1
2019-03-22T03:04:44.668Z,7.1
2019-03-22T03:05:46.225Z,7.2
2019-03-22T03:06:47.468Z,7.1
2019-03-22T03:07:49.059Z,7.1
2019-03-22T03:08:50.638Z,7.1
2019-03-22T03:09:52.029Z,7.1
2019-03-22T03:10:53.622Z,7.1
2019-03-22T03:11:55.202Z,7.1
2019-03-22T03:12:56.756Z,7.1
2019-03-22T03:13:58.358Z,7.1
2019-03-22T03:14:59.926Z,7.1
2019-03-22T03:16:01.476Z,7.1
2019-03-22T03:17:03.054Z,7.1
2019-03-22T03:18:04.637Z,7.2
2019-03-22T03:19:06.172Z,7.2
2019-03-22T03:20:07.570Z,7.1
2019-03-22T03:21:08.989Z,7.1
2019-03-22T03:22:10.559Z,7.2
2019-03-22T03:23:11.958Z,7.2
2019-03-22T03:24:13.557Z,7.2
2019-03-22T03:25:14.861Z,7.2
2019-03-22T03:26:16.139Z,7.2
2019-03-22T03:27:17.703Z,7.2
2019-03-22T03:28:18.945Z,7.2
2019-03-22T03:29:20.335Z,7.2
2019-03-22T03:30:22.277Z,7.2
2019-03-22T03:31:23.770Z,7.3
2019-03-22T03:32:25.440Z,7.3
2019-03-22T03:33:27.073Z,7.4
2019-03-22T03:34:28.712Z,7.5
2019-03-22T03:35:30.318Z,7.6
2019-03-22T03:36:36.079Z,7.8
2019-03-22T03:37:37.468Z,7.9
2019-03-22T03:38:39.064Z,7.8
2019-03-22T03:39:40.473Z,7.9
2019-03-22T03:40:41.851Z,7.9
2019-03-22T03:41:43.412Z,7.9
2019-03-22T03:42:44.834Z,7.2
2019-03-22T03:43:46.411Z,7.3
2019-03-22T03:44:47.835Z,7.4
2019-03-22T03:45:49.382Z,7.5
2019-03-22T03:46:50.928Z,7.6
2019-03-22T03:47:52.477Z,7.8
2019-03-22T03:48:54.035Z,7.9
2019-03-22T03:49:55.613Z,7.3
2019-03-22T03:50:57.228Z,7.4
2019-03-22T03:51:58.638Z,7.6
2019-03-22T03:53:00.088Z,7.7
2019-03-22T03:54:01.486Z,7.8
2019-03-22T03:55:02.998Z,7.9
2019-03-22T03:56:04.233Z,7.9
2019-03-22T03:57:05.691Z,7.9
2019-03-22T03:58:07.280Z,7.9
2019-03-22T03:59:08.668Z,7.9
2019-03-22T04:00:10.239Z,7.9
2019-03-22T04:01:11.532Z,7.9
2019-03-22T04:02:12.960Z,7.9
2019-03-22T04:03:14.390Z,7.9
2019-03-22T04:04:15.935Z,7.9
2019-03-22T04:05:17.448Z,7.9
2019-03-22T04:06:19.022Z,7.9
2019-03-22T04:07:20.581Z,7.9
2019-03-22T04:08:22.134Z,7.9
2019-03-22T04:09:23.686Z,7.9
2019-03-22T04:10:25.274Z,7.9
2019-03-22T04:11:26.886Z,7.9
2019-03-22T04:12:28.301Z,7.9
2019-03-22T04:13:29.691Z,7.9
2019-03-22T04:14:31.098Z,7.8
2019-03-22T04:15:32.662Z,7.8
2019-03-22T04:16:34.218Z,7.8
2019-03-22T04:17:35.801Z,7.8
2019-03-22T04:18:37.352Z,7.8
2019-03-22T04:19:38.918Z,7.8
2019-03-22T04:20:40.382Z,7.8
2019-03-22T04:21:41.937Z,7.8
2019-03-22T04:22:43.503Z,7.9
2019-03-22T04:23:45.061Z,7.8
2019-03-22T04:24:46.704Z,7.8
2019-03-22T04:25:48.241Z,7.8
2019-03-22T04:26:49.811Z,7.8
2019-03-22T04:27:51.382Z,7.8
2019-03-22T04:29:09.850Z,7.8
2019-03-22T04:30:11.557Z,7.8
2019-03-22T04:31:13.005Z,7.8
2019-03-22T04:32:14.582Z,7.8
2019-03-22T04:33:16.197Z,7.9
2019-03-22T04:34:17.602Z,7.9
2019-03-22T04:35:19.145Z,7.9
2019-03-22T04:36:20.500Z,7.9
2019-03-22T04:37:23.436Z,7.9
2019-03-22T04:38:24.932Z,7.9
2019-03-22T04:39:26.494Z,7.9
2019-03-22T04:40:27.942Z,7.9
2019-03-22T04:41:29.416Z,7.9
2019-03-22T04:42:30.833Z,7.9
2019-03-22T04:43:32.444Z,7.9
2019-03-22T04:44:33.741Z,7.8
2019-03-22T04:45:34.802Z,7.8
2019-03-22T04:46:36.188Z,7.8
2019-03-22T04:47:37.579Z,7.8
2019-03-22T04:48:39.308Z,7.8
2019-03-22T04:49:40.843Z,7.7
2019-03-22T04:50:42.041Z,7.6
2019-03-22T04:51:43.585Z,7.4
2019-03-22T04:52:45.122Z,7.3
2019-03-22T04:53:46.504Z,7.2
2019-03-22T04:54:47.778Z,7.1
2019-03-22T04:55:49.170Z,7.1
2019-03-22T04:56:50.558Z,7.1
2019-03-22T04:57:52.120Z,7.1
2019-03-22T04:58:53.668Z,7.1
2019-03-22T04:59:55.058Z,7.1
2019-03-22T05:00:56.456Z,7.1
2019-03-22T05:01:58.004Z,7.1
2019-03-22T05:02:59.410Z,7.1
2019-03-22T05:04:01.013Z,7.1
2019-03-22T05:05:02.430Z,7.1
2019-03-22T05:06:04.012Z,7.2
2019-03-22T05:07:05.406Z,7.1
2019-03-22T05:08:06.932Z,7.2
2019-03-22T05:09:08.486Z,7.2
2019-03-22T05:10:09.871Z,7.2
2019-03-22T05:11:11.273Z,7.2
2019-03-22T05:12:15.529Z,7.2
2019-03-22T05:13:16.952Z,7.2
2019-03-22T05:14:18.497Z,7.2
2019-03-22T05:15:20.068Z,7.3
2019-03-22T05:16:21.452Z,7.3
2019-03-22T05:17:22.678Z,7.4
2019-03-22T05:18:24.217Z,7.5
2019-03-22T05:19:25.794Z,7.6
2019-03-22T05:20:27.323Z,7.8
2019-03-22T05:21:28.941Z,7.9
2019-03-22T05:22:30.516Z,7.9
2019-03-22T05:23:32.060Z,7.9
2019-03-22T05:24:33.448Z,7.9
2019-03-22T05:25:34.982Z,7.9
2019-03-22T05:26:36.552Z,7.2
2019-03-22T05:27:37.974Z,7.4
2019-03-22T05:28:39.566Z,7.5
2019-03-22T05:29:40.819Z,7.6
2019-03-22T05:30:42.414Z,7.7
2019-03-22T05:31:43.938Z,7.8
2019-03-22T05:32:45.492Z,7.9
2019-03-22T05:33:47.038Z,7.9
2019-03-22T05:34:48.475Z,7.9
2019-03-22T05:35:50.000Z,7.9
2019-03-22T05:36:51.545Z,7.9
2019-03-22T05:37:53.170Z,7.9
2019-03-22T05:38:54.718Z,7.9
2019-03-22T05:39:56.112Z,7.8
2019-03-22T05:40:57.658Z,7.8
2019-03-22T05:41:59.182Z,7.8
2019-03-22T05:43:00.720Z,7.8
2019-03-22T05:44:01.956Z,7.8
2019-03-22T05:45:03.538Z,7.7
2019-03-22T05:46:05.091Z,7.7
2019-03-22T05:47:06.470Z,7.7
2019-03-22T05:48:07.868Z,7.7
2019-03-22T05:49:09.240Z,7.7
2019-03-22T05:50:10.639Z,7.6
2019-03-22T05:51:12.038Z,7.6
2019-03-22T05:52:13.439Z,7.5
2019-03-22T05:53:14.858Z,7.5
2019-03-22T05:54:16.442Z,7.4
2019-03-22T05:55:17.836Z,7.4
2019-03-22T05:56:19.069Z,7.3
2019-03-22T05:57:20.593Z,7.2
2019-03-22T05:58:22.142Z,7.2
2019-03-22T05:59:23.670Z,7.2
2019-03-22T06:00:25.220Z,7.2
2019-03-22T06:01:26.624Z,7.2
2019-03-22T06:02:28.038Z,7.3
2019-03-22T06:03:29.400Z,7.3
2019-03-22T06:04:30.779Z,7.4
2019-03-22T06:05:32.400Z,7.4
2019-03-22T06:06:33.779Z,7.4
2019-03-22T06:07:37.908Z,7.4
2019-03-22T06:08:39.292Z,7.5
2019-03-22T06:09:40.708Z,7.5
2019-03-22T06:10:42.175Z,7.5
2019-03-22T06:11:43.558Z,7.6
2019-03-22T06:12:44.945Z,7.6
2019-03-22T06:13:46.482Z,7.6
2019-03-22T06:14:48.043Z,7.6
2019-03-22T06:15:49.642Z,7.6
2019-03-22T06:16:51.166Z,7.6
2019-03-22T06:17:53.600Z,7.6
2019-03-22T06:18:55.150Z,7.6
2019-03-22T06:19:56.525Z,7.7
2019-03-22T06:20:58.057Z,7.7
2019-03-22T06:21:59.268Z,7.7
2019-03-22T06:23:00.652Z,7.6
2019-03-22T06:24:02.022Z,7.6
2019-03-22T06:25:03.509Z,7.5
2019-03-22T06:26:05.066Z,7.4
2019-03-22T06:27:06.445Z,7.3
2019-03-22T06:28:07.825Z,7.2
2019-03-22T06:29:09.427Z,7.2
2019-03-22T06:30:10.830Z,7.2
2019-03-22T06:31:12.054Z,7.1
2019-03-22T06:32:13.441Z,7.2
2019-03-22T06:33:14.974Z,7.2
2019-03-22T06:34:16.342Z,7.2
2019-03-22T06:35:17.587Z,7.2
2019-03-22T06:36:19.131Z,7.2
2019-03-22T06:37:20.373Z,7.1
2019-03-22T06:38:21.782Z,7.1
2019-03-22T06:39:23.300Z,7.1
2019-03-22T06:40:24.684Z,7.1
2019-03-22T06:41:26.422Z,7.1
2019-03-22T06:42:28.133Z,7.2
2019-03-22T06:43:29.686Z,7.2
2019-03-22T06:44:31.066Z,7.2
2019-03-22T06:45:32.437Z,7.2
2019-03-22T06:46:33.841Z,7.2
2019-03-22T06:47:35.231Z,7.2
2019-03-22T06:48:36.642Z,7.2
2019-03-22T06:49:38.015Z,7.2
2019-03-22T06:50:39.456Z,7.2
2019-03-22T06:51:40.851Z,7.3
2019-03-22T06:52:42.390Z,7.3
2019-03-22T06:53:43.788Z,7.4
2019-03-22T06:54:45.343Z,7.5
2019-03-22T06:55:46.903Z,7.6
2019-03-22T06:56:48.428Z,7.7
2019-03-22T06:57:49.979Z,7.7
2019-03-22T06:58:51.522Z,7.8
2019-03-22T06:59:52.925Z,7.8
2019-03-22T07:00:54.515Z,7.8
2019-03-22T07:01:56.070Z,7.8
2019-03-22T07:02:57.444Z,7.8
2019-03-22T07:03:58.972Z,7.7
2019-03-22T07:05:00.620Z,7.7
2019-03-22T07:06:02.019Z,7.6
2019-03-22T07:07:03.427Z,7.6
2019-03-22T07:08:04.830Z,7.6
2019-03-22T07:09:06.381Z,7.6
2019-03-22T07:10:07.769Z,7.6
2019-03-22T07:11:09.310Z,7.7
2019-03-22T07:12:10.861Z,7.7
2019-03-22T07:13:12.421Z,7.7
2019-03-22T07:14:13.991Z,7.7
2019-03-22T07:15:15.385Z,7.7
2019-03-22T07:16:16.958Z,7.7
2019-03-22T07:17:18.499Z,7.7
2019-03-22T07:18:19.890Z,7.7
2019-03-22T07:19:21.450Z,7.7
2019-03-22T07:20:23.061Z,7.8
2019-03-22T07:21:24.449Z,7.8
2019-03-22T07:22:25.833Z,7.8
2019-03-22T07:23:27.427Z,7.9
2019-03-22T07:24:28.829Z,7.9
2019-03-22T07:25:30.377Z,7.9
2019-03-22T07:26:31.940Z,7.8
2019-03-22T07:27:33.330Z,7.8
2019-03-22T07:28:34.909Z,7.8
2019-03-22T07:29:36.300Z,7.8
2019-03-22T07:30:37.729Z,7.8
2019-03-22T07:31:39.132Z,7.8
2019-03-22T07:32:40.222Z,7.8
2019-03-22T07:33:41.622Z,7.8
2019-03-22T07:34:43.015Z,7.8
2019-03-22T07:35:44.634Z,7.8
2019-03-22T07:36:48.538Z,7.8
2019-03-22T07:37:50.078Z,7.8
2019-03-22T07:38:51.637Z,7.8
2019-03-22T07:39:53.181Z,7.8
2019-03-22T07:40:54.717Z,7.8
2019-03-22T07:41:56.274Z,7.9
2019-03-22T07:42:57.817Z,7.9
2019-03-22T07:43:59.371Z,7.9
2019-03-22T07:45:00.946Z,7.8
2019-03-22T07:46:02.324Z,7.8
2019-03-22T07:47:03.866Z,7.8
2019-03-22T07:48:05.439Z,7.8
2019-03-22T07:49:06.702Z,7.8
2019-03-22T07:50:07.929Z,7.8
2019-03-22T07:51:09.480Z,7.8
2019-03-22T07:52:10.720Z,7.8
2019-03-22T07:53:12.291Z,7.8
2019-03-22T07:54:13.707Z,7.8
2019-03-22T07:55:15.116Z,7.8
2019-03-22T07:56:16.680Z,7.8
2019-03-22T07:57:18.258Z,7.8
2019-03-22T07:58:19.797Z,7.7
2019-03-22T07:59:21.177Z,7.7
2019-03-22T08:00:32.551Z,7.6
2019-03-22T08:01:34.129Z,7.6
2019-03-22T08:02:35.665Z,7.5
2019-03-22T08:03:37.236Z,7.4
2019-03-22T08:04:38.653Z,7.3
2019-03-22T08:05:52.944Z,7.2
2019-03-22T08:06:54.174Z,7.2
2019-03-22T08:07:57.739Z,7.2
2019-03-22T08:08:59.301Z,7.1
2019-03-22T08:10:01.657Z,7.1
2019-03-22T08:11:03.138Z,7.1
2019-03-22T08:12:04.719Z,7.1
2019-03-22T08:13:06.128Z,7.2
2019-03-22T08:14:07.699Z,7.1
2019-03-22T08:15:10.169Z,7.2
2019-03-22T08:16:11.565Z,7.2
2019-03-22T08:17:13.248Z,7.1
2019-03-22T08:18:14.805Z,7.1
2019-03-22T08:19:16.431Z,7.2
2019-03-22T08:20:18.229Z,7.2
2019-03-22T08:21:19.537Z,7.2
2019-03-22T08:22:21.097Z,7.2
2019-03-22T08:23:22.853Z,7.2
2019-03-22T08:24:24.267Z,7.2
2019-03-22T08:25:25.637Z,7.2
2019-03-22T08:26:27.215Z,7.2
2019-03-22T08:27:28.788Z,7.3
2019-03-22T08:28:30.335Z,7.3
2019-03-22T08:29:31.931Z,7.4
2019-03-22T08:30:44.601Z,7.4
2019-03-22T08:31:46.226Z,7.4
2019-03-22T08:32:50.883Z,7.5
2019-03-22T08:33:52.441Z,7.5
2019-03-22T08:34:54.068Z,7.6
2019-03-22T08:35:55.699Z,7.6
2019-03-22T08:36:57.181Z,7.7
2019-03-22T08:37:58.827Z,7.7
2019-03-22T08:39:00.470Z,7.8
2019-03-22T08:40:02.159Z,7.8
2019-03-22T08:41:03.987Z,7.8
2019-03-22T08:42:05.681Z,7.8
2019-03-22T08:43:07.220Z,7.8
2019-03-22T08:44:08.799Z,7.8
2019-03-22T08:45:12.860Z,7.8
2019-03-22T08:46:14.133Z,7.8
2019-03-22T08:47:15.739Z,7.8
2019-03-22T08:48:17.337Z,7.9
2019-03-22T08:49:19.403Z,7.9
2019-03-22T08:50:21.100Z,7.9
2019-03-22T08:51:22.784Z,7.9
2019-03-22T08:52:24.403Z,7.9
2019-03-22T08:53:26.213Z,7.9
2019-03-22T08:54:27.869Z,7.9
2019-03-22T08:55:29.290Z,7.9
2019-03-22T08:56:30.547Z,7.9
2019-03-22T08:57:32.185Z,7.9
2019-03-22T08:58:33.677Z,7.9
2019-03-22T08:59:35.325Z,7.9
2019-03-22T09:00:41.347Z,7.9
2019-03-22T09:01:42.947Z,7.9
2019-03-22T09:02:44.595Z,7.9
2019-03-22T09:03:45.974Z,7.9
2019-03-22T09:04:47.538Z,7.9
2019-03-22T09:05:48.993Z,7.3
2019-03-22T09:06:50.594Z,7.4
2019-03-22T09:07:52.054Z,7.6
2019-03-22T09:08:53.548Z,7.7
2019-03-22T09:09:55.197Z,7.8
2019-03-22T09:10:56.779Z,7.8
2019-03-22T09:11:58.412Z,7.9
2019-03-22T09:13:00.189Z,7.9
2019-03-22T09:14:01.859Z,7.9
2019-03-22T09:15:03.470Z,7.9
2019-03-22T09:16:05.140Z,7.9
2019-03-22T09:17:06.816Z,7.2
2019-03-22T09:18:08.361Z,7.3
2019-03-22T09:19:10.034Z,7.4
2019-03-22T09:20:11.626Z,7.5
2019-03-22T09:21:13.218Z,7.5
2019-03-22T09:22:14.728Z,7.5
2019-03-22T09:23:16.217Z,7.6
2019-03-22T09:24:20.579Z,7.6
2019-03-22T09:25:22.040Z,7.6
2019-03-22T09:26:23.451Z,7.5
2019-03-22T09:27:25.117Z,7.4
2019-03-22T09:28:26.311Z,7.3
2019-03-22T09:29:27.876Z,7.3
2019-03-22T09:30:29.390Z,7.2
2019-03-22T09:31:31.157Z,7.2
2019-03-22T09:32:32.899Z,7.2
2019-03-22T09:33:34.607Z,7.1
2019-03-22T09:34:36.326Z,7.2
2019-03-22T09:35:38.005Z,7.2
2019-03-22T09:36:39.702Z,7.1
2019-03-22T09:37:41.537Z,7.2
2019-03-22T09:38:43.312Z,7.2
2019-03-22T09:39:44.722Z,7.2
2019-03-22T09:40:46.352Z,7.1
2019-03-22T09:41:48.089Z,7.1
2019-03-22T09:42:53.369Z,7.1
2019-03-22T09:43:55.022Z,7.2
2019-03-22T09:44:56.624Z,7.1
2019-03-22T09:45:58.206Z,7.2
2019-03-22T09:46:59.772Z,7.2
2019-03-22T09:48:01.311Z,7.2
2019-03-22T09:49:03.241Z,7.2
2019-03-22T09:50:04.767Z,7.2
2019-03-22T09:51:06.456Z,7.2
2019-03-22T09:52:07.907Z,7.2
2019-03-22T09:53:09.601Z,7.2
2019-03-22T09:54:11.339Z,7.2
2019-03-22T09:55:16.116Z,7.3
2019-03-22T09:56:17.780Z,7.3
2019-03-22T09:57:19.399Z,7.4
2019-03-22T09:58:21.058Z,7.4
2019-03-22T09:59:22.657Z,7.5
2019-03-22T10:00:24.307Z,7.6
2019-03-22T10:01:26.629Z,7.7
2019-03-22T10:02:28.184Z,7.8
2019-03-22T10:03:29.537Z,7.2
2019-03-22T10:04:31.203Z,7.4
2019-03-22T10:05:32.678Z,7.6
2019-03-22T10:06:34.292Z,7.7
2019-03-22T10:07:35.992Z,7.8
2019-03-22T10:08:37.497Z,7.2
2019-03-22T10:09:39.202Z,7.3
2019-03-22T10:10:40.874Z,7.4
2019-03-22T10:11:42.326Z,7.5
2019-03-22T10:12:43.917Z,7.6
2019-03-22T10:13:48.726Z,7.6
2019-03-22T10:14:50.161Z,7.7
2019-03-22T10:15:51.798Z,7.8
2019-03-22T10:16:53.406Z,7.9
2019-03-22T10:17:55.050Z,7.9
2019-03-22T10:18:56.737Z,7.9
2019-03-22T10:19:58.287Z,7.9
2019-03-22T10:20:59.961Z,7.9
2019-03-22T10:22:01.547Z,7.9
2019-03-22T10:23:03.308Z,7.9
2019-03-22T10:24:04.993Z,7.9
2019-03-22T10:25:06.609Z,7.8
2019-03-22T10:26:08.074Z,7.8
2019-03-22T10:27:09.767Z,7.8
2019-03-22T10:28:11.543Z,7.8
2019-03-22T10:29:13.102Z,7.8
2019-03-22T10:30:14.635Z,7.9
2019-03-22T10:31:16.292Z,7.9
2019-03-22T10:32:17.785Z,7.6
2019-03-22T10:33:24.518Z,7.8
2019-03-22T10:34:26.146Z,7.9
2019-03-22T10:35:28.412Z,7.9
2019-03-22T10:36:30.125Z,7.9
2019-03-22T10:37:31.872Z,7.9
2019-03-22T10:38:33.993Z,7.9
2019-03-22T10:39:35.781Z,7.9
2019-03-22T10:40:37.566Z,7.9
2019-03-22T10:41:39.090Z,7.9
2019-03-22T10:42:40.733Z,7.9
2019-03-22T10:43:42.193Z,7.9
2019-03-22T10:44:43.980Z,7.7
2019-03-22T10:45:45.762Z,7.1
2019-03-22T10:46:47.522Z,7.4
2019-03-22T10:47:49.044Z,7.6
2019-03-22T10:48:50.798Z,7.8
2019-03-22T10:49:52.415Z,7.9
2019-03-22T10:50:54.043Z,7.9
2019-03-22T10:51:59.813Z,7.9
2019-03-22T10:53:01.530Z,7.8
2019-03-22T10:54:03.229Z,7.9
2019-03-22T10:55:31.813Z,7.9
2019-03-22T10:56:33.339Z,7.9
2019-03-22T10:57:34.729Z,7.2
2019-03-22T10:58:36.157Z,7.3
2019-03-22T10:59:37.709Z,7.4
2019-03-22T11:00:39.272Z,7.5
2019-03-22T11:02:08.576Z,7.5
2019-03-22T11:03:10.008Z,7.5
2019-03-22T11:04:11.440Z,7.4
2019-03-22T11:05:12.691Z,7.3
2019-03-22T11:06:14.240Z,7.2
2019-03-22T11:07:15.644Z,7.2
2019-03-22T11:08:17.196Z,7.2
2019-03-22T11:09:18.756Z,7.2
2019-03-22T11:10:20.317Z,7.1
2019-03-22T11:11:21.858Z,7.2
2019-03-22T11:12:23.104Z,7.2
2019-03-22T11:13:24.641Z,7.1
2019-03-22T11:14:26.185Z,7.1
2019-03-22T11:15:27.274Z,7.1
2019-03-22T11:16:28.868Z,7.1
2019-03-22T11:17:30.399Z,7.1
2019-03-22T11:18:38.895Z,7.1
2019-03-22T11:19:40.273Z,7.1
2019-03-22T11:20:41.670Z,7.1
2019-03-22T11:21:43.069Z,7.2
2019-03-22T11:22:44.347Z,7.2
2019-03-22T11:23:45.575Z,7.2
2019-03-22T11:24:47.137Z,7.2
2019-03-22T11:25:48.673Z,7.2
2019-03-22T11:26:50.078Z,7.2
2019-03-22T11:27:51.649Z,7.2
2019-03-22T11:28:53.178Z,7.2
2019-03-22T11:29:54.719Z,7.2
2019-03-22T11:31:06.390Z,7.3
2019-03-22T11:32:14.270Z,7.3
2019-03-22T11:33:15.811Z,7.3
2019-03-22T11:34:17.369Z,7.4
2019-03-22T11:35:18.925Z,7.4
2019-03-22T11:36:20.478Z,7.5
2019-03-22T11:37:22.018Z,7.6
2019-03-22T11:38:24.515Z,7.7
2019-03-22T11:39:26.104Z,7.8
2019-03-22T11:40:28.138Z,7.9
2019-03-22T11:41:29.683Z,7.9
2019-03-22T11:42:31.067Z,7.6
2019-03-22T11:43:32.623Z,7.8
2019-03-22T11:44:34.177Z,7.9
2019-03-22T11:45:35.712Z,7.9
2019-03-22T11:46:37.126Z,7.9
2019-03-22T11:47:38.550Z,7.9
2019-03-22T11:48:39.927Z,7.5
2019-03-22T11:49:41.505Z,7.6
2019-03-22T11:50:43.069Z,7.8
2019-03-22T11:51:44.624Z,7.9
2019-03-22T11:52:46.181Z,7.9
2019-03-22T11:53:47.706Z,7.9
2019-03-22T11:54:49.105Z,7.9
2019-03-22T11:55:50.365Z,7.1
2019-03-22T11:56:51.733Z,7.3
2019-03-22T11:57:53.107Z,7.4
2019-03-22T11:58:54.658Z,7.5
2019-03-22T11:59:56.206Z,7.6
2019-03-22T12:00:57.752Z,7.7
2019-03-22T12:01:59.308Z,7.8
2019-03-22T12:03:00.710Z,7.8
2019-03-22T12:04:02.139Z,7.9
2019-03-22T12:05:03.689Z,7.9
2019-03-22T12:06:05.239Z,7.9
2019-03-22T12:07:06.628Z,7.9
2019-03-22T12:08:08.004Z,7.9
2019-03-22T12:09:09.553Z,7.9
2019-03-22T12:10:10.787Z,7.9
2019-03-22T12:11:12.201Z,7.9
2019-03-22T12:12:13.601Z,7.9
2019-03-22T12:13:15.153Z,7.8
2019-03-22T12:14:16.710Z,7.8
2019-03-22T12:15:18.247Z,7.8
2019-03-22T12:16:19.809Z,7.8
2019-03-22T12:17:21.341Z,7.8
2019-03-22T12:18:22.732Z,7.7
2019-03-22T12:19:24.292Z,7.7
2019-03-22T12:20:25.867Z,7.6
2019-03-22T12:21:27.426Z,7.5
2019-03-22T12:22:28.810Z,7.5
2019-03-22T12:23:30.209Z,7.5
2019-03-22T12:24:31.419Z,7.6
2019-03-22T12:25:32.972Z,7.6
2019-03-22T12:26:34.534Z,7.6
2019-03-22T12:27:38.245Z,7.6
2019-03-22T12:28:39.468Z,7.6
2019-03-22T12:29:41.080Z,7.6
2019-03-22T12:30:42.622Z,7.6
2019-03-22T12:31:43.865Z,7.5
2019-03-22T12:32:45.280Z,7.5
2019-03-22T12:33:46.831Z,7.4
2019-03-22T12:34:48.080Z,7.4
2019-03-22T12:35:49.638Z,7.4
2019-03-22T12:36:51.201Z,7.4
2019-03-22T12:37:52.632Z,7.5
2019-03-22T12:38:54.222Z,7.5
2019-03-22T12:39:55.751Z,7.4
2019-03-22T12:40:57.155Z,7.4
2019-03-22T12:41:58.714Z,7.3
2019-03-22T12:43:00.276Z,7.2
2019-03-22T12:44:01.747Z,7.1
2019-03-22T12:45:03.317Z,7.1
2019-03-22T12:46:04.918Z,7.1
2019-03-22T12:47:06.485Z,7.1
2019-03-22T12:48:07.925Z,7.1
2019-03-22T12:49:09.469Z,7.1
2019-03-22T12:50:10.857Z,7.1
2019-03-22T12:51:12.436Z,7.1
2019-03-22T12:52:13.966Z,7.1
2019-03-22T12:53:15.395Z,7.1
2019-03-22T12:54:16.963Z,7.1
2019-03-22T12:55:18.400Z,7.1
2019-03-22T12:56:19.931Z,7.1
2019-03-22T12:57:21.533Z,7.1
2019-03-22T12:58:23.365Z,7.1
2019-03-22T12:59:24.929Z,7.1
2019-03-22T13:00:26.539Z,7.1
2019-03-22T13:01:27.952Z,7.1
2019-03-22T13:02:29.527Z,7.1
2019-03-22T13:03:30.935Z,7.1
2019-03-22T13:04:32.381Z,7.1
2019-03-22T13:05:33.968Z,7.2
2019-03-22T13:06:35.395Z,7.1
2019-03-22T13:07:36.834Z,7.2
2019-03-22T13:08:38.126Z,7.2
2019-03-22T13:09:39.739Z,7.2
2019-03-22T13:10:41.142Z,7.2
2019-03-22T13:11:42.700Z,7.2
2019-03-22T13:12:44.341Z,7.2
2019-03-22T13:13:45.821Z,7.2
2019-03-22T13:14:47.326Z,7.3
2019-03-22T13:15:48.921Z,7.3
2019-03-22T13:16:50.321Z,7.3
2019-03-22T13:17:51.806Z,7.4
2019-03-22T13:18:53.365Z,7.6
2019-03-22T13:19:54.910Z,7.8
2019-03-22T13:20:56.342Z,7.2
2019-03-22T13:21:57.886Z,7.6
2019-03-22T13:22:59.379Z,7.9
2019-03-22T13:24:00.976Z,7.9
2019-03-22T13:25:02.578Z,7.9
2019-03-22T13:26:04.117Z,7.5
2019-03-22T13:27:05.691Z,7.9
2019-03-22T13:28:07.091Z,7.9
2019-03-22T13:29:08.650Z,7.9
2019-03-22T13:30:10.029Z,7.9
2019-03-22T13:31:13.190Z,7.9
2019-03-22T13:32:14.737Z,7.9
2019-03-22T13:33:16.409Z,7.9
2019-03-22T13:34:17.734Z,7.9
2019-03-22T13:35:19.146Z,7.4
2019-03-22T13:36:21.018Z,7.9
2019-03-22T13:37:22.421Z,7.5
2019-03-22T13:38:24.012Z,7.9
2019-03-22T13:39:25.623Z,7.9
2019-03-22T13:40:27.013Z,7.9
2019-03-22T13:41:28.594Z,7.9
2019-03-22T13:42:30.216Z,7.9
2019-03-22T13:43:31.815Z,7.8
2019-03-22T13:44:33.097Z,7.9
2019-03-22T13:45:34.550Z,7.9
2019-03-22T13:46:41.943Z,7.3
2019-03-22T13:47:43.576Z,7.7
2019-03-22T13:48:45.171Z,7.9
2019-03-22T13:49:46.929Z,7.4
2019-03-22T13:50:48.564Z,7.7
2019-03-22T13:51:50.161Z,7.9
2019-03-22T13:52:51.807Z,7.9
2019-03-22T13:53:53.247Z,7.9
2019-03-22T13:54:54.535Z,7.9
2019-03-22T13:55:56.164Z,7.8
2019-03-22T13:56:57.899Z,7.7
2019-03-22T13:57:59.600Z,7.9
2019-03-22T13:59:01.091Z,7.9
2019-03-22T14:00:02.530Z,7.9
2019-03-22T14:01:04.029Z,7.9
2019-03-22T14:02:05.517Z,7.9
2019-03-22T14:03:07.110Z,7.9
2019-03-22T14:04:08.913Z,7.8
2019-03-22T14:05:10.421Z,7.7
2019-03-22T14:06:11.863Z,7.6
2019-03-22T14:07:13.099Z,7.5
2019-03-22T14:08:14.488Z,7.5
2019-03-22T14:09:15.892Z,7.5
2019-03-22T14:10:17.470Z,7.6
2019-03-22T14:11:19.038Z,7.7
2019-03-22T14:12:20.569Z,7.8